CheckWX is a tool to help pilots better visualize weather data.  It is not intended as a substitute for an official pre-flight weather briefing.

07:14:25 UTC

LIRZ TAF
Perugia San Francesco d'Assisi – Umbria International Airport
Perugia, Italy
TAF LIRZ 170500Z 1706/1806 VRB05KT 9999 FEW030 BECMG 1710/1712 03010KT BECMG 1716/1718 VRB04KT

Jun-17@
06:00 UTC

Jun-17 @ 06:00 UTC

Jun-17@
10:00 UTC

Jun-17 @ 10:00 UTC

TAF LIRZ 170500Z 1706/1806 VRB05KT 9999 FEW030
Wind
  • Variable at 5 KTS
Cloud Levels
  • Few at 3,000' AGL

Jun-17@
10:00 UTC

Jun-17 @ 10:00 UTC

Jun-17@
16:00 UTC

Jun-17 @ 16:00 UTC

BECMG 1710/1712 03010KT

Becoming

Becoming Conditions expected by Mon, Jun 17, 2019 @ 12:00 UTC

Wind
  • 030° at 10 KTS
Cloud Levels
  • Few at 3,000' AGL

Jun-17@
16:00 UTC

Jun-17 @ 16:00 UTC

Jun-18@
06:00 UTC

Jun-18 @ 06:00 UTC

BECMG 1716/1718 VRB04KT

Becoming

Becoming Conditions expected by Mon, Jun 17, 2019 @ 18:00 UTC

Wind
  • Variable at 4 KTS
Cloud Levels
  • Few at 3,000' AGL